Time;durP1;ratioP1;P1;durP2;ratioP2;P2;SDS_P1;SDS_P2;PMS_P1;PMS_P2;Temp;Humidity;BMP_temperature;BMP_pressure;BME280_temperature;BME280_humidity;BME280_pressure;Samples;Min_cycle;Max_cycle;Signal;HPM_P1;HPM_P2
2022/04/21 00:01:37;;;;;;;;;;;;;;;;;;5007750;28;1310;-65
2022/04/21 00:04:02;;;;;;;;;;;;;;;;;;4998541;28;1667;-64
2022/04/21 00:06:28;;;;;;;;;;;;;;;;;;5005846;28;1494;-64
2022/04/21 00:08:54;;;;;;;;;;;;;;;;;;5000483;28;1170;-64
2022/04/21 00:11:19;;;;;;;;;;;;;;;;;;4998168;28;1580;-64
2022/04/21 00:13:44;;;;;;;;;;;;;;;;;;5007614;28;1890;-64
2022/04/21 00:16:09;;;;;;;;;;;;;;;;;;4999169;28;841;-64
2022/04/21 00:18:34;;;;;;;;;;;;;;;;;;4999352;28;806;-65
2022/04/21 00:21:01;;;;;;;;;;;;;;;;;;5000348;28;1650;-64
2022/04/21 00:23:26;;;;;;;;;;;;;;;;;;5006522;28;1274;-64
2022/04/21 00:25:53;;;;;;;;;;;;;;;;;;4998745;28;1449;-64
2022/04/21 00:28:18;;;;;;;;;;;;;;;;;;4998713;28;1639;-64
2022/04/21 00:30:43;;;;;;;;;;;;;;;;;;4998760;28;878;-64
2022/04/21 00:33:08;;;;;;;;;;;;;;;;;;4996805;28;1963;-63
2022/04/21 00:35:34;;;;;;;;;;;;;;;;;;4999598;28;1596;-64
2022/04/21 00:37:59;;;;;;;;;;;;;;;;;;5004953;28;1123;-64
2022/04/21 00:40:29;;;;;;;;;;;;;;;;;;4999449;28;1577;-64
2022/04/21 00:42:54;;;;;;;;;;;;;;;;;;5001943;28;1473;-62
2022/04/21 00:45:20;;;;;;;;;;;;;;;;;;4998666;28;858;-63
2022/04/21 00:47:46;;;;;;;;;;;;;;;;;;4998483;28;1513;-63
2022/04/21 00:50:16;;;;;;;;;;;;;;;;;;5000977;28;1552;-63
2022/04/21 00:52:43;;;;;;;;;;;;;;;;;;5008773;28;1960;-62
2022/04/21 00:55:09;;;;;;;;;;;;;;;;;;5018022;28;1039;-63
2022/04/21 00:57:34;;;;;;;;;;;;;;;;;;5009185;28;1611;-63
2022/04/21 01:00:00;;;;;;;;;;;;;;;;;;4998495;28;787;-64
2022/04/21 01:05:10;;;;;;;;;;;;;;;;;;5003659;28;1513;-64
2022/04/21 01:07:36;;;;;;;;;;;;;;;;;;5003100;28;1334;-64
2022/04/21 01:10:01;;;;;;;;;;;;;;;;;;5006955;28;1470;-63
2022/04/21 01:12:27;;;;;;;;;;;;;;;;;;4997646;28;1968;-63
2022/04/21 01:14:52;;;;;;;;;;;;;;;;;;4998027;28;787;-64
2022/04/21 01:17:30;;;;;;;;;;;;;;;;;;5005469;28;1596;-64
2022/04/21 01:19:55;;;;;;;;;;;;;;;;;;4996591;28;1568;-64
2022/04/21 01:22:20;;;;;;;;;;;;;;;;;;5003880;28;1357;-64
2022/04/21 01:24:45;;;;;;;;;;;;;;;;;;5000999;28;1035;-64
2022/04/21 01:27:10;;;;;;;;;;;;;;;;;;5001023;28;825;-63
2022/04/21 01:29:35;;;;;;;;;;;;;;;;;;5001229;28;961;-64
2022/04/21 01:32:01;;;;;;;;;;;;;;;;;;5000476;28;1898;-64
2022/04/21 01:34:26;;;;;;;;;;;;;;;;;;5008050;28;1560;-64
2022/04/21 01:42:19;;;;;;;;;;;;;;;;;;5000835;28;1430;-63
2022/04/21 01:44:45;;;;;;;;;;;;;;;;;;5000669;28;817;-64
2022/04/21 01:47:11;;;;;;;;;;;;;;;;;;5000789;28;1394;-63
2022/04/21 01:49:36;;;;;;;;;;;;;;;;;;5007762;28;1524;-63
2022/04/21 01:52:02;;;;;;;;;;;;;;;;;;5001406;28;1989;-64
2022/04/21 01:54:27;;;;;;;;;;;;;;;;;;5000768;28;1125;-63
2022/04/21 01:56:52;;;;;;;;;;;;;;;;;;4999371;28;906;-63
2022/04/21 01:59:17;;;;;;;;;;;;;;;;;;5000652;28;858;-63
2022/04/21 02:01:42;;;;;;;;;;;;;;;;;;5001929;28;1549;-64
2022/04/21 02:04:10;;;;;;;;;;;;;;;;;;5011911;28;1159;-63
2022/04/21 02:06:36;;;;;;;;;;;;;;;;;;5011768;28;1492;-63
2022/04/21 02:09:01;;;;;;;;;;;;;;;;;;5000250;28;1427;-63
2022/04/21 02:11:28;;;;;;;;;;;;;;;;;;5000814;28;864;-63
2022/04/21 02:13:53;;;;;;;;;;;;;;;;;;5000061;28;1886;-63
2022/04/21 02:16:45;;;;;;;;;;;;;;;;;;;;;
2022/04/21 02:19:13;;;;;;;;;;;;;;;;;;5006965;28;1094;-64
2022/04/21 02:21:38;;;;;;;;;;;;;;;;;;4999034;28;1261;-64
2022/04/21 02:24:04;;;;;;;;;;;;;;;;;;4999770;28;1533;-64
2022/04/21 02:26:29;;;;;;;;;;;;;;;;;;5000253;28;826;-65
2022/04/21 02:28:54;;;;;;;;;;;;;;;;;;4999194;28;870;-65
2022/04/21 02:31:19;;;;;;;;;;;;;;;;;;4999382;28;1568;-64
2022/04/21 02:33:45;;;;;;;;;;;;;;;;;;5011110;28;1985;-64
2022/04/21 02:36:10;;;;;;;;;;;;;;;;;;5018612;28;1237;-64
2022/04/21 02:38:35;;;;;;;;;;;;;;;;;;5002150;28;1481;-64
2022/04/21 02:41:01;;;;;;;;;;;;;;;;;;5000057;28;1545;-65
2022/04/21 02:43:26;;;;;;;;;;;;;;;;;;4999108;28;1560;-65
2022/04/21 02:45:52;;;;;;;;;;;;;;;;;;5006692;28;1224;-64
2022/04/21 02:48:17;;;;;;;;;;;;;;;;;;5015762;28;1159;-64
2022/04/21 02:50:43;;;;;;;;;;;;;;;;;;5016822;27;1715;-64
2022/04/21 02:53:08;;;;;;;;;;;;;;;;;;4999403;28;1898;-64
2022/04/21 02:58:19;;;;;;;;;;;;;;;;;;5008488;28;1165;-64
2022/04/21 03:00:45;;;;;;;;;;;;;;;;;;4999799;28;1485;-64
2022/04/21 03:03:10;;;;;;;;;;;;;;;;;;5006649;28;1600;-64
2022/04/21 03:05:35;;;;;;;;;;;;;;;;;;5017959;28;1140;-64
2022/04/21 03:08:00;;;;;;;;;;;;;;;;;;5002635;28;1434;-65
2022/04/21 03:10:26;;;;;;;;;;;;;;;;;;5007165;28;1469;-65
2022/04/21 03:12:51;;;;;;;;;;;;;;;;;;5011581;28;1965;-64
2022/04/21 03:15:16;;;;;;;;;;;;;;;;;;5019604;27;814;-65
2022/04/21 03:17:41;;;;;;;;;;;;;;;;;;5005583;28;1512;-65
2022/04/21 03:20:07;;;;;;;;;;;;;;;;;;4999774;28;1442;-64
2022/04/21 03:25:17;;;;;;;;;;;;;;;;;;5004182;28;1017;-65
2022/04/21 03:27:46;;;;;;;;;;;;;;;;;;4998508;28;944;-65
2022/04/21 03:30:12;;;;;;;;;;;;;;;;;;4998544;28;1568;-65
2022/04/21 03:32:37;;;;;;;;;;;;;;;;;;5008786;28;1914;-64
2022/04/21 03:35:02;;;;;;;;;;;;;;;;;;4999493;28;779;-64
2022/04/21 03:37:28;;;;;;;;;;;;;;;;;;4999536;28;1615;-64
2022/04/21 03:39:53;;;;;;;;;;;;;;;;;;5010717;28;1182;-64
2022/04/21 03:42:26;;;;;;;;;;;;;;;;;;5016684;27;1267;-64
2022/04/21 03:44:51;;;;;;;;;;;;;;;;;;5006196;28;1544;-64
2022/04/21 03:47:17;;;;;;;;;;;;;;;;;;5010711;28;1197;-64
2022/04/21 03:49:42;;;;;;;;;;;;;;;;;;5018987;28;984;-64
2022/04/21 03:52:09;;;;;;;;;;;;;;;;;;5005483;28;1902;-64
2022/04/21 03:54:35;;;;;;;;;;;;;;;;;;4999025;28;1753;-64
2022/04/21 03:57:00;;;;;;;;;;;;;;;;;;5006457;28;1565;-64
2022/04/21 03:59:25;;;;;;;;;;;;;;;;;;5014413;28;1215;-64
2022/04/21 04:01:53;;;;;;;;;;;;;;;;;;4998489;28;1502;-63
2022/04/21 04:04:18;;;;;;;;;;;;;;;;;;4999131;28;841;-64
2022/04/21 04:12:11;;;;;;;;;;;;;;;;;;5010990;28;1894;-64
2022/04/21 04:14:37;;;;;;;;;;;;;;;;;;4999027;28;869;-65
2022/04/21 04:17:03;;;;;;;;;;;;;;;;;;4998878;28;889;-65
2022/04/21 04:19:28;;;;;;;;;;;;;;;;;;4999941;28;1597;-64
2022/04/21 04:21:53;;;;;;;;;;;;;;;;;;5011054;28;1419;-65
2022/04/21 04:24:19;;;;;;;;;;;;;;;;;;5015511;28;1521;-64
2022/04/21 04:26:44;;;;;;;;;;;;;;;;;;4998921;28;1214;-64
2022/04/21 04:29:10;;;;;;;;;;;;;;;;;;4998412;28;1513;-64
2022/04/21 04:31:36;;;;;;;;;;;;;;;;;;5005368;28;1369;-65
2022/04/21 04:34:01;;;;;;;;;;;;;;;;;;5010573;28;1932;-65
2022/04/21 04:36:27;;;;;;;;;;;;;;;;;;4998352;28;1608;-66
2022/04/21 04:38:52;;;;;;;;;;;;;;;;;;4998739;28;820;-65
2022/04/21 04:44:01;;;;;;;;;;;;;;;;;;5005973;28;1005;-65
2022/04/21 04:46:36;;;;;;;;;;;;;;;;;;5009784;28;1544;-65
2022/04/21 04:49:06;;;;;;;;;;;;;;;;;;5012014;28;1128;-65
2022/04/21 04:51:32;;;;;;;;;;;;;;;;;;5003659;28;1477;-64
2022/04/21 04:53:57;;;;;;;;;;;;;;;;;;4998517;28;1993;-64
2022/04/21 04:56:22;;;;;;;;;;;;;;;;;;4998850;28;1569;-64
2022/04/21 04:58:48;;;;;;;;;;;;;;;;;;5010201;27;1182;-64
2022/04/21 05:01:14;;;;;;;;;;;;;;;;;;5000866;28;1435;-63
2022/04/21 05:03:39;;;;;;;;;;;;;;;;;;5001046;28;1269;-64
2022/04/21 05:06:05;;;;;;;;;;;;;;;;;;5008550;28;1467;-65
2022/04/21 05:08:30;;;;;;;;;;;;;;;;;;5088158;28;1139;-64
2022/04/21 05:10:55;;;;;;;;;;;;;;;;;;5043140;28;1627;-65
2022/04/21 05:13:20;;;;;;;;;;;;;;;;;;5012333;28;1898;-65
2022/04/21 05:15:45;;;;;;;;;;;;;;;;;;5020732;28;980;-65
2022/04/21 05:18:11;;;;;;;;;;;;;;;;;;5020803;28;854;-65
2022/04/21 05:20:36;;;;;;;;;;;;;;;;;;5016867;28;1241;-65
2022/04/21 05:23:05;;;;;;;;;;;;;;;;;;5001112;28;1191;-65
2022/04/21 05:25:33;;;;;;;;;;;;;;;;;;5001267;28;1486;-65
2022/04/21 05:27:58;;;;;;;;;;;;;;;;;;5007590;28;1143;-65
2022/04/21 05:33:09;;;;;;;;;;;;;;;;;;5000539;28;1959;-65
2022/04/21 05:35:35;;;;;;;;;;;;;;;;;;5000757;28;1501;-65
2022/04/21 05:38:00;;;;;;;;;;;;;;;;;;5000821;28;886;-65
2022/04/21 05:40:26;;;;;;;;;;;;;;;;;;5006837;28;1611;-64
2022/04/21 05:42:54;;;;;;;;;;;;;;;;;;5012570;28;1263;-65
2022/04/21 05:45:20;;;;;;;;;;;;;;;;;;5020491;28;937;-65
2022/04/21 05:47:45;;;;;;;;;;;;;;;;;;5020412;28;988;-65
2022/04/21 05:50:11;;;;;;;;;;;;;;;;;;5020492;28;785;-65
2022/04/21 05:52:38;;;;;;;;;;;;;;;;;;5020017;28;1898;-64
2022/04/21 05:55:03;;;;;;;;;;;;;;;;;;5027709;28;1611;-65
2022/04/21 05:57:28;;;;;;;;;;;;;;;;;;5031402;28;1186;-64
2022/04/21 05:59:53;;;;;;;;;;;;;;;;;;5069053;28;1461;-64
2022/04/21 06:02:19;;;;;;;;;;;;;;;;;;5036179;28;1286;-64
2022/04/21 06:04:44;;;;;;;;;;;;;;;;;;5055396;28;1225;-64
2022/04/21 06:07:09;;;;;;;;;;;;;;;;;;5036542;28;1218;-65
2022/04/21 06:09:35;;;;;;;;;;;;;;;;;;5007968;28;1536;-66
2022/04/21 06:12:02;;;;;;;;;;;;;;;;;;5006019;28;1898;-66
2022/04/21 06:14:27;;;;;;;;;;;;;;;;;;4999040;28;1458;-67
2022/04/21 06:16:52;;;;;;;;;;;;;;;;;;5003665;28;1540;-64
2022/04/21 06:19:17;;;;;;;;;;;;;;;;;;5011997;28;1014;-64
2022/04/21 06:21:42;;;;;;;;;;;;;;;;;;5016558;28;1309;-65
2022/04/21 06:24:08;;;;;;;;;;;;;;;;;;5008460;28;1201;-63
2022/04/21 06:26:33;;;;;;;;;;;;;;;;;;5018431;28;1143;-64
2022/04/21 06:29:02;;;;;;;;;;;;;;;;;;5019828;28;988;-64
2022/04/21 06:31:27;;;;;;;;;;;;;;;;;;5012856;27;1516;-65
2022/04/21 06:33:52;;;;;;;;;;;;;;;;;;5012275;28;1902;-64
2022/04/21 06:36:17;;;;;;;;;;;;;;;;;;5021554;28;1396;-64
2022/04/21 06:38:44;;;;;;;;;;;;;;;;;;5044301;28;1194;-65
2022/04/21 06:41:11;;;;;;;;;;;;;;;;;;5008007;28;1646;-65
2022/04/21 06:49:04;;;;;;;;;;;;;;;;;;5008586;28;969;-65
2022/04/21 06:51:30;;;;;;;;;;;;;;;;;;5019567;28;932;-65
2022/04/21 06:53:55;;;;;;;;;;;;;;;;;;5013904;28;1959;-65
2022/04/21 06:56:21;;;;;;;;;;;;;;;;;;5011194;28;1149;-65
2022/04/21 06:58:46;;;;;;;;;;;;;;;;;;5019492;28;984;-65
2022/04/21 07:01:11;;;;;;;;;;;;;;;;;;5000604;28;1509;-65
2022/04/21 07:03:36;;;;;;;;;;;;;;;;;;4999748;28;1195;-64
2022/04/21 07:06:02;;;;;;;;;;;;;;;;;;4998793;28;1493;-64
2022/04/21 07:08:28;;;;;;;;;;;;;;;;;;5007955;28;1271;-65
2022/04/21 07:10:53;;;;;;;;;;;;;;;;;;5011137;28;1131;-64
2022/04/21 07:13:18;;;;;;;;;;;;;;;;;;5012088;28;1894;-65
2022/04/21 07:15:44;;;;;;;;;;;;;;;;;;5010460;28;1220;-65
2022/04/21 07:18:10;;;;;;;;;;;;;;;;;;5017707;28;815;-65
2022/04/21 07:20:35;;;;;;;;;;;;;;;;;;5018975;28;901;-65
2022/04/21 07:23:00;;;;;;;;;;;;;;;;;;5009042;28;1666;-65
2022/04/21 07:25:25;;;;;;;;;;;;;;;;;;5000529;28;1233;-65
2022/04/21 07:27:53;;;;;;;;;;;;;;;;;;4999121;28;1331;-65
2022/04/21 07:30:18;;;;;;;;;;;;;;;;;;5001662;28;1156;-65
2022/04/21 07:32:44;;;;;;;;;;;;;;;;;;4997325;28;1902;-66
2022/04/21 07:35:09;;;;;;;;;;;;;;;;;;4997460;28;1415;-66
2022/04/21 07:37:37;;;;;;;;;;;;;;;;;;5009021;28;1213;-66
2022/04/21 07:40:02;;;;;;;;;;;;;;;;;;5019286;28;904;-65
2022/04/21 07:42:27;;;;;;;;;;;;;;;;;;5007534;28;1642;-65
2022/04/21 07:44:53;;;;;;;;;;;;;;;;;;5010031;28;1555;-65
2022/04/21 07:47:18;;;;;;;;;;;;;;;;;;5006311;28;1592;-64
2022/04/21 07:49:46;;;;;;;;;;;;;;;;;;4998676;28;1257;-64
2022/04/21 07:55:04;;;;;;;;;;;;;;;;;;4999160;28;1490;-65
2022/04/21 07:57:30;;;;;;;;;;;;;;;;;;5007131;28;1313;-65
2022/04/21 07:59:55;;;;;;;;;;;;;;;;;;5003857;28;1183;-66
2022/04/21 08:02:20;;;;;;;;;;;;;;;;;;5012703;27;1938;-66
2022/04/21 08:04:47;;;;;;;;;;;;;;;;;;5009547;28;1444;-66
2022/04/21 08:07:12;;;;;;;;;;;;;;;;;;5008384;28;1418;-65
2022/04/21 08:09:38;;;;;;;;;;;;;;;;;;5023123;28;1341;-64
2022/04/21 08:12:03;;;;;;;;;;;;;;;;;;5027569;28;1505;-64
2022/04/21 08:14:28;;;;;;;;;;;;;;;;;;5055824;28;1890;-63
2022/04/21 08:16:54;;;;;;;;;;;;;;;;;;5056246;28;1233;-63
2022/04/21 08:19:19;;;;;;;;;;;;;;;;;;5043386;28;1326;-63
2022/04/21 08:21:45;;;;;;;;;;;;;;;;;;5051753;28;1275;-65
2022/04/21 08:32:34;;;;;;;;;;;;;;;;;;5041511;28;1902;-65
2022/04/21 08:34:59;;;;;;;;;;;;;;;;;;5057204;28;1194;-65
2022/04/21 08:37:24;;;;;;;;;;;;;;;;;;5050088;28;1405;-65
2022/04/21 08:39:50;;;;;;;;;;;;;;;;;;5031381;28;1308;-66
2022/04/21 08:42:15;;;;;;;;;;;;;;;;;;5052934;28;1301;-65
2022/04/21 08:44:43;;;;;;;;;;;;;;;;;;5026547;28;1432;-65
2022/04/21 08:47:09;;;;;;;;;;;;;;;;;;5046771;28;1258;-65
2022/04/21 08:49:36;;;;;;;;;;;;;;;;;;5037506;28;1244;-65
2022/04/21 08:52:01;;;;;;;;;;;;;;;;;;5028596;28;1274;-66
2022/04/21 08:54:27;;;;;;;;;;;;;;;;;;5021777;28;1951;-65
2022/04/21 08:56:52;;;;;;;;;;;;;;;;;;5035795;28;1487;-65
2022/04/21 08:59:19;;;;;;;;;;;;;;;;;;5014431;28;1219;-65
2022/04/21 09:01:44;;;;;;;;;;;;;;;;;;5020879;28;1353;-66
2022/04/21 09:04:10;;;;;;;;;;;;;;;;;;5004409;28;1599;-65
2022/04/21 09:06:38;;;;;;;;;;;;;;;;;;5033818;28;1159;-67
2022/04/21 09:09:14;;;;;;;;;;;;;;;;;;5041813;28;1270;-67
2022/04/21 09:11:41;;;;;;;;;;;;;;;;;;5050377;28;1305;-67
2022/04/21 09:14:06;;;;;;;;;;;;;;;;;;5038798;28;1902;-67
2022/04/21 09:16:35;;;;;;;;;;;;;;;;;;5043887;28;1305;-68
2022/04/21 09:19:01;;;;;;;;;;;;;;;;;;5036874;28;1273;-67
2022/04/21 09:21:34;;;;;;;;;;;;;;;;;;5035670;28;1331;-68
2022/04/21 09:23:59;;;;;;;;;;;;;;;;;;5038607;28;1703;-66
2022/04/21 09:26:25;;;;;;;;;;;;;;;;;;5050839;28;1258;-66
2022/04/21 09:28:54;;;;;;;;;;;;;;;;;;5035319;28;1253;-67
2022/04/21 09:31:21;;;;;;;;;;;;;;;;;;5029191;28;1326;-66
2022/04/21 09:33:46;;;;;;;;;;;;;;;;;;5028302;28;1909;-67
2022/04/21 09:36:12;;;;;;;;;;;;;;;;;;5026887;28;1258;-67
2022/04/21 09:38:37;;;;;;;;;;;;;;;;;;5038750;28;1666;-67
2022/04/21 09:41:10;;;;;;;;;;;;;;;;;;5031032;28;1501;-68
2022/04/21 09:43:37;;;;;;;;;;;;;;;;;;5032853;28;1430;-67
2022/04/21 09:46:16;;;;;;;;;;;;;;;;;;5023110;28;1445;-67
2022/04/21 09:48:42;;;;;;;;;;;;;;;;;;5029220;28;1270;-67
2022/04/21 09:51:14;;;;;;;;;;;;;;;;;;5039831;28;1274;-67
2022/04/21 09:53:58;;;;;;;;;;;;;;;;;;5047031;28;1973;-68
2022/04/21 09:56:33;;;;;;;;;;;;;;;;;;5015215;28;1406;-67
2022/04/21 09:58:59;;;;;;;;;;;;;;;;;;5016871;28;1492;-66
2022/04/21 10:01:25;;;;;;;;;;;;;;;;;;5049992;28;1266;-67
2022/04/21 10:03:50;;;;;;;;;;;;;;;;;;5040972;28;1320;-67
2022/04/21 10:06:16;;;;;;;;;;;;;;;;;;5057104;28;1308;-66
2022/04/21 10:08:42;;;;;;;;;;;;;;;;;;5042638;28;1280;-66
2022/04/21 10:11:09;;;;;;;;;;;;;;;;;;5054426;28;1229;-66
2022/04/21 10:13:34;;;;;;;;;;;;;;;;;;5046638;28;1971;-66
2022/04/21 10:16:00;;;;;;;;;;;;;;;;;;5048695;28;1237;-66
2022/04/21 10:18:25;;;;;;;;;;;;;;;;;;5051497;28;1301;-65
2022/04/21 10:20:55;;;;;;;;;;;;;;;;;;5040837;28;1677;-66
2022/04/21 10:23:22;;;;;;;;;;;;;;;;;;5043497;28;1504;-67
2022/04/21 10:25:57;;;;;;;;;;;;;;;;;;5041531;28;1272;-67
2022/04/21 10:28:34;;;;;;;;;;;;;;;;;;5048443;28;1128;-67
2022/04/21 10:31:20;;;;;;;;;;;;;;;;;;5029927;28;1286;-65
2022/04/21 10:34:14;;;;;;;;;;;;;;;;;;5040481;28;1961;-66
2022/04/21 10:36:41;;;;;;;;;;;;;;;;;;5036264;28;1314;-65
2022/04/21 10:39:10;;;;;;;;;;;;;;;;;;5039350;28;1310;-65
2022/04/21 10:41:35;;;;;;;;;;;;;;;;;;5044634;28;1273;-66
2022/04/21 10:44:01;;;;;;;;;;;;;;;;;;5060545;28;1505;-65
2022/04/21 10:46:29;;;;;;;;;;;;;;;;;;5029113;28;1619;-66
2022/04/21 10:48:54;;;;;;;;;;;;;;;;;;5051154;28;1123;-65
2022/04/21 10:51:38;;;;;;;;;;;;;;;;;;5047874;28;1297;-65
2022/04/21 10:59:49;;;;;;;;;;;;;;;;;;5046862;28;1348;-66
2022/04/21 11:02:14;;;;;;;;;;;;;;;;;;5048041;28;1429;-66
2022/04/21 11:04:39;;;;;;;;;;;;;;;;;;5039522;28;1514;-66
2022/04/21 11:07:11;;;;;;;;;;;;;;;;;;5047216;28;1309;-65
2022/04/21 11:09:36;;;;;;;;;;;;;;;;;;5050091;28;1291;-65
2022/04/21 11:12:04;;;;;;;;;;;;;;;;;;5064084;28;1422;-65
2022/04/21 11:14:31;;;;;;;;;;;;;;;;;;5039776;28;1893;-65
2022/04/21 11:16:57;;;;;;;;;;;;;;;;;;5051726;28;1245;-66
2022/04/21 11:19:28;;;;;;;;;;;;;;;;;;5049313;28;1455;-65
2022/04/21 11:21:53;;;;;;;;;;;;;;;;;;5038211;28;1321;-66
2022/04/21 11:24:18;;;;;;;;;;;;;;;;;;5049576;28;1324;-65
2022/04/21 11:26:44;;;;;;;;;;;;;;;;;;5040647;28;1253;-66
2022/04/21 11:29:09;;;;;;;;;;;;;;;;;;5032941;28;1324;-65
2022/04/21 11:31:35;;;;;;;;;;;;;;;;;;5048934;28;1262;-65
2022/04/21 11:34:03;;;;;;;;;;;;;;;;;;5038972;27;1903;-64
2022/04/21 11:36:36;;;;;;;;;;;;;;;;;;5025523;28;1345;-64
2022/04/21 11:39:05;;;;;;;;;;;;;;;;;;5037518;27;1397;-64
2022/04/21 11:41:30;;;;;;;;;;;;;;;;;;5058942;28;1401;-64
2022/04/21 11:43:55;;;;;;;;;;;;;;;;;;5042979;28;1332;-64
2022/04/21 11:46:21;;;;;;;;;;;;;;;;;;5030163;28;1285;-64
2022/04/21 11:48:55;;;;;;;;;;;;;;;;;;5049368;28;1211;-64
2022/04/21 11:51:24;;;;;;;;;;;;;;;;;;5030050;28;1278;-64
2022/04/21 11:53:50;;;;;;;;;;;;;;;;;;5050034;28;1910;-64
2022/04/21 11:56:15;;;;;;;;;;;;;;;;;;5037965;28;1482;-64
2022/04/21 11:58:44;;;;;;;;;;;;;;;;;;5036713;28;1466;-63
2022/04/21 12:06:46;;;;;;;;;;;;;;;;;;5046651;28;1211;-64
2022/04/21 12:09:15;;;;;;;;;;;;;;;;;;5051056;28;1375;-64
2022/04/21 12:11:40;;;;;;;;;;;;;;;;;;5047144;28;1348;-64
2022/04/21 12:14:06;;;;;;;;;;;;;;;;;;5051563;28;1978;-64
2022/04/21 12:16:36;;;;;;;;;;;;;;;;;;5025098;28;1360;-64
2022/04/21 12:19:11;;;;;;;;;;;;;;;;;;5049684;28;1368;-64
2022/04/21 12:21:36;;;;;;;;;;;;;;;;;;5051527;28;1313;-66
2022/04/21 12:24:15;;;;;;;;;;;;;;;;;;5058056;28;1364;-65
2022/04/21 12:26:53;;;;;;;;;;;;;;;;;;5044142;28;1317;-65
2022/04/21 12:29:19;;;;;;;;;;;;;;;;;;5033838;28;1246;-65
2022/04/21 12:31:49;;;;;;;;;;;;;;;;;;5033149;28;1427;-65
2022/04/21 12:34:22;;;;;;;;;;;;;;;;;;5041330;28;1910;-65
2022/04/21 12:37:05;;;;;;;;;;;;;;;;;;5046901;28;1199;-65
2022/04/21 12:39:30;;;;;;;;;;;;;;;;;;5042277;28;1301;-65
2022/04/21 12:41:56;;;;;;;;;;;;;;;;;;5050092;28;1346;-66
2022/04/21 12:44:24;;;;;;;;;;;;;;;;;;5052005;28;1037;-65
2022/04/21 12:47:19;;;;;;;;;;;;;;;;;;5038958;28;1303;-65
2022/04/21 12:49:52;;;;;;;;;;;;;;;;;;5042625;28;1478;-66
2022/04/21 12:52:31;;;;;;;;;;;;;;;;;;5043586;28;1969;-65
2022/04/21 12:54:56;;;;;;;;;;;;;;;;;;5023845;28;1222;-66
2022/04/21 12:57:21;;;;;;;;;;;;;;;;;;5045845;28;1457;-65
2022/04/21 12:59:47;;;;;;;;;;;;;;;;;;5043955;28;1237;-65
2022/04/21 13:02:13;;;;;;;;;;;;;;;;;;5041057;28;1620;-65
2022/04/21 13:04:38;;;;;;;;;;;;;;;;;;5013584;28;1502;-65
2022/04/21 13:07:04;;;;;;;;;;;;;;;;;;5051359;28;1371;-65
2022/04/21 13:09:29;;;;;;;;;;;;;;;;;;5049536;28;1368;-65
2022/04/21 13:11:54;;;;;;;;;;;;;;;;;;5043906;28;1281;-65
2022/04/21 13:14:19;;;;;;;;;;;;;;;;;;5043133;28;1968;-65
2022/04/21 13:16:45;;;;;;;;;;;;;;;;;;5061900;28;1301;-65
2022/04/21 13:19:10;;;;;;;;;;;;;;;;;;5049157;28;1659;-65
2022/04/21 13:21:55;;;;;;;;;;;;;;;;;;5054310;28;1259;-66
2022/04/21 13:24:20;;;;;;;;;;;;;;;;;;5042360;28;1325;-65
2022/04/21 13:26:45;;;;;;;;;;;;;;;;;;5059083;28;1381;-65
2022/04/21 13:29:10;;;;;;;;;;;;;;;;;;5059103;28;1265;-64
2022/04/21 13:34:20;;;;;;;;;;;;;;;;;;5056140;28;1906;-65
2022/04/21 13:36:45;;;;;;;;;;;;;;;;;;5045484;28;1262;-65
2022/04/21 13:39:11;;;;;;;;;;;;;;;;;;5047648;28;1666;-65
2022/04/21 13:41:36;;;;;;;;;;;;;;;;;;5054927;28;1288;-66
2022/04/21 13:44:01;;;;;;;;;;;;;;;;;;5049665;28;1376;-66
2022/04/21 13:46:27;;;;;;;;;;;;;;;;;;5046305;28;1304;-65
2022/04/21 13:48:52;;;;;;;;;;;;;;;;;;5051143;28;1317;-65
2022/04/21 13:51:17;;;;;;;;;;;;;;;;;;5060568;28;1269;-65
2022/04/21 13:53:42;;;;;;;;;;;;;;;;;;5042239;28;2003;-65
2022/04/21 13:56:08;;;;;;;;;;;;;;;;;;5055059;28;1230;-69
2022/04/21 13:58:33;;;;;;;;;;;;;;;;;;5042359;28;1253;-69
2022/04/21 14:00:59;;;;;;;;;;;;;;;;;;5055492;28;1325;-67
2022/04/21 14:03:24;;;;;;;;;;;;;;;;;;5050557;28;1326;-68
2022/04/21 14:05:49;;;;;;;;;;;;;;;;;;5039359;28;1264;-67
2022/04/21 14:08:14;;;;;;;;;;;;;;;;;;5052897;28;1264;-68
2022/04/21 14:10:40;;;;;;;;;;;;;;;;;;5054005;28;1229;-68
2022/04/21 14:13:06;;;;;;;;;;;;;;;;;;5055732;28;1975;-68
2022/04/21 14:15:31;;;;;;;;;;;;;;;;;;5061851;28;1324;-68
2022/04/21 14:17:56;;;;;;;;;;;;;;;;;;5055991;28;1368;-68
2022/04/21 14:20:21;;;;;;;;;;;;;;;;;;5054219;28;1354;-68
2022/04/21 14:22:47;;;;;;;;;;;;;;;;;;5044931;28;1268;-69
2022/04/21 14:25:12;;;;;;;;;;;;;;;;;;5046488;28;1280;-69
2022/04/21 14:27:37;;;;;;;;;;;;;;;;;;5064181;28;1325;-67
2022/04/21 14:30:03;;;;;;;;;;;;;;;;;;5053183;28;1332;-70
2022/04/21 14:32:28;;;;;;;;;;;;;;;;;;5047575;28;1975;-69
2022/04/21 14:34:54;;;;;;;;;;;;;;;;;;5056096;28;1437;-69
2022/04/21 14:44:04;;;;;;;;;;;;;;;;;;5052882;28;1308;-68
2022/04/21 14:45:32;;;;;;;;;;;;;;;;;;5062383;28;1071;-69
2022/04/21 14:47:58;;;;;;;;;;;;;;;;;;5061872;28;1289;-68
2022/04/21 14:50:23;;;;;;;;;;;;;;;;;;5048033;28;1318;-69
2022/04/21 14:52:48;;;;;;;;;;;;;;;;;;5054905;28;1898;-67
2022/04/21 14:55:13;;;;;;;;;;;;;;;;;;5038250;28;1323;-67
2022/04/21 14:57:39;;;;;;;;;;;;;;;;;;5059655;28;1281;-67
2022/04/21 15:00:05;;;;;;;;;;;;;;;;;;5040931;28;1401;-68
2022/04/21 15:02:35;;;;;;;;;;;;;;;;;;5026423;28;1308;-68
2022/04/21 15:05:01;;;;;;;;;;;;;;;;;;5037663;28;1337;-68
2022/04/21 15:07:26;;;;;;;;;;;;;;;;;;5037759;28;1308;-69
2022/04/21 15:09:51;;;;;;;;;;;;;;;;;;5058247;28;1253;-67
2022/04/21 15:12:16;;;;;;;;;;;;;;;;;;5052109;28;1255;-67
2022/04/21 15:14:42;;;;;;;;;;;;;;;;;;5058955;28;1889;-68
2022/04/21 15:17:07;;;;;;;;;;;;;;;;;;5042113;28;1714;-68
2022/04/21 15:19:32;;;;;;;;;;;;;;;;;;5043457;28;1332;-68
2022/04/21 15:21:57;;;;;;;;;;;;;;;;;;5053354;28;1281;-67
2022/04/21 15:24:22;;;;;;;;;;;;;;;;;;5047027;28;1348;-68
2022/04/21 15:26:48;;;;;;;;;;;;;;;;;;5053897;28;1674;-68
2022/04/21 15:29:13;;;;;;;;;;;;;;;;;;5037456;28;1549;-67
2022/04/21 15:31:38;;;;;;;;;;;;;;;;;;5058806;28;1487;-67
2022/04/21 15:34:03;;;;;;;;;;;;;;;;;;5049729;28;1973;-67
2022/04/21 15:36:29;;;;;;;;;;;;;;;;;;5059504;28;1277;-67
2022/04/21 15:38:55;;;;;;;;;;;;;;;;;;5049624;28;1562;-68
2022/04/21 15:41:20;;;;;;;;;;;;;;;;;;5039642;28;1439;-66
2022/04/21 15:43:45;;;;;;;;;;;;;;;;;;5047156;28;1321;-67
2022/04/21 15:46:10;;;;;;;;;;;;;;;;;;5038421;28;1333;-67
2022/04/21 15:48:36;;;;;;;;;;;;;;;;;;5052647;28;1289;-67
2022/04/21 15:51:01;;;;;;;;;;;;;;;;;;5040161;28;1340;-67
2022/04/21 15:58:55;;;;;;;;;;;;;;;;;;5043697;28;1287;-67
2022/04/21 16:01:22;;;;;;;;;;;;;;;;;;5046407;28;1343;-67
2022/04/21 16:03:47;;;;;;;;;;;;;;;;;;5030791;28;1330;-68
2022/04/21 16:06:13;;;;;;;;;;;;;;;;;;5031156;28;1323;-67
2022/04/21 16:08:38;;;;;;;;;;;;;;;;;;5042638;28;1291;-67
2022/04/21 16:11:03;;;;;;;;;;;;;;;;;;5052856;28;1282;-66
2022/04/21 16:13:29;;;;;;;;;;;;;;;;;;5053253;28;1890;-67
2022/04/21 16:15:54;;;;;;;;;;;;;;;;;;5055621;28;1230;-68
2022/04/21 16:18:22;;;;;;;;;;;;;;;;;;5057729;28;1320;-68
2022/04/21 16:20:47;;;;;;;;;;;;;;;;;;5054476;28;1242;-69
2022/04/21 16:23:12;;;;;;;;;;;;;;;;;;5031716;28;1382;-69
2022/04/21 16:25:37;;;;;;;;;;;;;;;;;;5044581;28;1299;-68
2022/04/21 16:28:03;;;;;;;;;;;;;;;;;;5049664;28;1285;-68
2022/04/21 16:30:30;;;;;;;;;;;;;;;;;;5038436;28;1351;-68
2022/04/21 16:32:55;;;;;;;;;;;;;;;;;;5028793;28;1966;-68
2022/04/21 16:35:20;;;;;;;;;;;;;;;;;;5051340;28;1640;-68
2022/04/21 16:37:46;;;;;;;;;;;;;;;;;;5050826;28;1318;-67
2022/04/21 16:40:11;;;;;;;;;;;;;;;;;;5037937;28;1343;-68
2022/04/21 16:42:38;;;;;;;;;;;;;;;;;;5032713;28;1390;-67
2022/04/21 16:45:03;;;;;;;;;;;;;;;;;;5042324;28;1175;-68
2022/04/21 16:47:28;;;;;;;;;;;;;;;;;;5047882;28;1374;-68
2022/04/21 16:49:54;;;;;;;;;;;;;;;;;;5048887;28;1312;-68
2022/04/21 16:52:19;;;;;;;;;;;;;;;;;;5044072;28;1322;-67
2022/04/21 16:54:44;;;;;;;;;;;;;;;;;;5043204;28;1898;-68
2022/04/21 16:57:10;;;;;;;;;;;;;;;;;;5061451;28;1250;-67
2022/04/21 16:59:35;;;;;;;;;;;;;;;;;;5045382;27;1341;-68
2022/04/21 17:04:44;;;;;;;;;;;;;;;;;;5036469;28;1422;-69
2022/04/21 17:07:09;;;;;;;;;;;;;;;;;;5049373;28;1325;-68
2022/04/21 17:09:35;;;;;;;;;;;;;;;;;;5063707;28;1233;-68
2022/04/21 17:12:00;;;;;;;;;;;;;;;;;;5061298;28;1218;-67
2022/04/21 17:14:25;;;;;;;;;;;;;;;;;;5047781;28;1898;-66
2022/04/21 17:16:50;;;;;;;;;;;;;;;;;;5056498;28;1269;-66
2022/04/21 17:19:16;;;;;;;;;;;;;;;;;;5059200;28;1254;-65
2022/04/21 17:21:41;;;;;;;;;;;;;;;;;;5032143;28;1492;-67
2022/04/21 17:24:06;;;;;;;;;;;;;;;;;;5049385;28;1500;-67
2022/04/21 17:26:32;;;;;;;;;;;;;;;;;;5053527;28;1352;-67
2022/04/21 17:28:57;;;;;;;;;;;;;;;;;;5051987;28;1347;-68
2022/04/21 17:31:22;;;;;;;;;;;;;;;;;;5044545;28;1214;-67
2022/04/21 17:33:47;;;;;;;;;;;;;;;;;;5042100;28;1898;-67
2022/04/21 17:36:13;;;;;;;;;;;;;;;;;;5048268;28;1370;-67
2022/04/21 17:38:38;;;;;;;;;;;;;;;;;;5050072;28;1269;-67
2022/04/21 17:41:04;;;;;;;;;;;;;;;;;;5062670;28;1392;-67
2022/04/21 17:43:29;;;;;;;;;;;;;;;;;;5029394;28;1418;-67
2022/04/21 17:45:54;;;;;;;;;;;;;;;;;;5024609;28;1389;-67
2022/04/21 17:48:20;;;;;;;;;;;;;;;;;;5035350;28;1316;-67
2022/04/21 17:50:45;;;;;;;;;;;;;;;;;;5028350;28;1265;-67
2022/04/21 17:53:11;;;;;;;;;;;;;;;;;;5034911;28;2232;-67
2022/04/21 17:55:36;;;;;;;;;;;;;;;;;;5031731;28;1262;-67
2022/04/21 17:58:01;;;;;;;;;;;;;;;;;;5029279;28;1350;-67
2022/04/21 18:00:26;;;;;;;;;;;;;;;;;;5028476;28;1239;-67
2022/04/21 18:02:52;;;;;;;;;;;;;;;;;;5022466;28;1353;-66
2022/04/21 18:05:17;;;;;;;;;;;;;;;;;;5034026;28;1303;-67
2022/04/21 18:07:42;;;;;;;;;;;;;;;;;;5049115;28;1261;-67
2022/04/21 18:10:08;;;;;;;;;;;;;;;;;;5061598;28;1297;-67